sensor_id;sensor_type;location;lat;lon;timestamp;temperature;humidity
10538;DHT22;5317;49.048;8.468;2023-02-28T00:02:05;6.50;44.70
10538;DHT22;5317;49.048;8.468;2023-02-28T00:04:32;6.50;44.70
10538;DHT22;5317;49.048;8.468;2023-02-28T00:06:58;6.50;44.80
10538;DHT22;5317;49.048;8.468;2023-02-28T00:09:27;6.40;44.80
10538;DHT22;5317;49.048;8.468;2023-02-28T00:11:53;6.40;44.90
10538;DHT22;5317;49.048;8.468;2023-02-28T00:14:20;6.40;45.60
10538;DHT22;5317;49.048;8.468;2023-02-28T00:16:47;6.40;45.10
10538;DHT22;5317;49.048;8.468;2023-02-28T00:19:14;6.40;45.10
10538;DHT22;5317;49.048;8.468;2023-02-28T00:21:41;6.30;45.20
10538;DHT22;5317;49.048;8.468;2023-02-28T00:24:09;6.30;45.30
10538;DHT22;5317;49.048;8.468;2023-02-28T00:26:37;6.30;45.30
10538;DHT22;5317;49.048;8.468;2023-02-28T00:29:04;6.30;45.40
10538;DHT22;5317;49.048;8.468;2023-02-28T00:31:31;6.30;45.40
10538;DHT22;5317;49.048;8.468;2023-02-28T00:33:58;6.20;45.40
10538;DHT22;5317;49.048;8.468;2023-02-28T00:36:24;6.20;45.50
10538;DHT22;5317;49.048;8.468;2023-02-28T00:38:52;6.20;45.70
10538;DHT22;5317;49.048;8.468;2023-02-28T00:41:19;6.20;45.70
10538;DHT22;5317;49.048;8.468;2023-02-28T00:43:47;6.20;46.00
10538;DHT22;5317;49.048;8.468;2023-02-28T00:46:14;6.10;45.90
10538;DHT22;5317;49.048;8.468;2023-02-28T00:48:40;6.10;45.90
10538;DHT22;5317;49.048;8.468;2023-02-28T00:51:07;6.10;45.90
10538;DHT22;5317;49.048;8.468;2023-02-28T00:53:34;6.10;45.90
10538;DHT22;5317;49.048;8.468;2023-02-28T00:56:01;6.10;45.90
10538;DHT22;5317;49.048;8.468;2023-02-28T00:58:28;6.20;46.00
10538;DHT22;5317;49.048;8.468;2023-02-28T01:00:56;6.00;45.90
10538;DHT22;5317;49.048;8.468;2023-02-28T01:03:23;6.10;45.90
10538;DHT22;5317;49.048;8.468;2023-02-28T01:05:51;6.00;46.10
10538;DHT22;5317;49.048;8.468;2023-02-28T01:08:18;6.00;46.10
10538;DHT22;5317;49.048;8.468;2023-02-28T01:10:45;6.00;46.50
10538;DHT22;5317;49.048;8.468;2023-02-28T01:13:12;6.00;46.50
10538;DHT22;5317;49.048;8.468;2023-02-28T01:15:41;6.00;46.50
10538;DHT22;5317;49.048;8.468;2023-02-28T01:18:11;5.90;46.60
10538;DHT22;5317;49.048;8.468;2023-02-28T01:20:38;5.90;46.60
10538;DHT22;5317;49.048;8.468;2023-02-28T01:23:05;5.90;46.70
10538;DHT22;5317;49.048;8.468;2023-02-28T01:25:34;5.90;46.90
10538;DHT22;5317;49.048;8.468;2023-02-28T01:28:01;5.90;47.00
10538;DHT22;5317;49.048;8.468;2023-02-28T01:30:28;5.90;46.90
10538;DHT22;5317;49.048;8.468;2023-02-28T01:32:55;5.80;46.90
10538;DHT22;5317;49.048;8.468;2023-02-28T01:35:23;5.80;47.00
10538;DHT22;5317;49.048;8.468;2023-02-28T01:37:50;5.90;47.20
10538;DHT22;5317;49.048;8.468;2023-02-28T01:40:17;5.80;47.10
10538;DHT22;5317;49.048;8.468;2023-02-28T01:42:44;5.80;47.10
10538;DHT22;5317;49.048;8.468;2023-02-28T01:45:22;5.80;47.10
10538;DHT22;5317;49.048;8.468;2023-02-28T01:47:55;5.80;47.30
10538;DHT22;5317;49.048;8.468;2023-02-28T01:50:27;5.70;47.30
10538;DHT22;5317;49.048;8.468;2023-02-28T01:52:56;5.70;47.30
10538;DHT22;5317;49.048;8.468;2023-02-28T01:55:24;5.70;47.50
10538;DHT22;5317;49.048;8.468;2023-02-28T01:57:56;5.70;47.40
10538;DHT22;5317;49.048;8.468;2023-02-28T02:00:25;5.70;47.70
10538;DHT22;5317;49.048;8.468;2023-02-28T02:02:56;5.70;47.70
10538;DHT22;5317;49.048;8.468;2023-02-28T02:05:26;5.70;47.80
10538;DHT22;5317;49.048;8.468;2023-02-28T02:07:58;5.60;47.80
10538;DHT22;5317;49.048;8.468;2023-02-28T02:10:31;5.60;47.80
10538;DHT22;5317;49.048;8.468;2023-02-28T02:13:26;5.60;47.90
10538;DHT22;5317;49.048;8.468;2023-02-28T02:16:03;5.60;48.20
10538;DHT22;5317;49.048;8.468;2023-02-28T02:18:34;5.60;48.30
10538;DHT22;5317;49.048;8.468;2023-02-28T02:27:38;5.50;48.30
10538;DHT22;5317;49.048;8.468;2023-02-28T02:30:39;5.50;48.30
10538;DHT22;5317;49.048;8.468;2023-02-28T02:33:35;5.50;48.50
10538;DHT22;5317;49.048;8.468;2023-02-28T02:36:10;5.50;48.60
10538;DHT22;5317;49.048;8.468;2023-02-28T02:38:46;5.50;48.50
10538;DHT22;5317;49.048;8.468;2023-02-28T02:41:19;5.40;48.50
10538;DHT22;5317;49.048;8.468;2023-02-28T02:43:52;5.50;48.60
10538;DHT22;5317;49.048;8.468;2023-02-28T02:46:23;5.50;48.60
10538;DHT22;5317;49.048;8.468;2023-02-28T02:48:53;5.50;48.50
10538;DHT22;5317;49.048;8.468;2023-02-28T02:51:24;5.40;48.60
10538;DHT22;5317;49.048;8.468;2023-02-28T02:53:56;5.40;48.60
10538;DHT22;5317;49.048;8.468;2023-02-28T02:56:27;5.40;48.60
10538;DHT22;5317;49.048;8.468;2023-02-28T02:58:59;5.40;48.70
10538;DHT22;5317;49.048;8.468;2023-02-28T03:01:29;5.40;48.60
10538;DHT22;5317;49.048;8.468;2023-02-28T03:03:59;5.40;48.60
10538;DHT22;5317;49.048;8.468;2023-02-28T03:06:28;5.40;48.60
10538;DHT22;5317;49.048;8.468;2023-02-28T03:08:55;5.40;48.60
10538;DHT22;5317;49.048;8.468;2023-02-28T03:11:22;5.40;48.70
10538;DHT22;5317;49.048;8.468;2023-02-28T03:13:58;5.40;48.90
10538;DHT22;5317;49.048;8.468;2023-02-28T03:16:33;5.40;48.90
10538;DHT22;5317;49.048;8.468;2023-02-28T03:19:23;5.40;48.90
10538;DHT22;5317;49.048;8.468;2023-02-28T03:22:01;5.40;49.00
10538;DHT22;5317;49.048;8.468;2023-02-28T03:24:34;5.40;49.20
10538;DHT22;5317;49.048;8.468;2023-02-28T03:27:07;5.40;49.10
10538;DHT22;5317;49.048;8.468;2023-02-28T03:29:37;5.40;49.30
10538;DHT22;5317;49.048;8.468;2023-02-28T03:32:10;5.40;49.20
10538;DHT22;5317;49.048;8.468;2023-02-28T03:34:41;5.40;49.30
10538;DHT22;5317;49.048;8.468;2023-02-28T03:37:14;5.40;49.30
10538;DHT22;5317;49.048;8.468;2023-02-28T03:39:46;5.50;49.30
10538;DHT22;5317;49.048;8.468;2023-02-28T03:42:15;5.50;49.30
10538;DHT22;5317;49.048;8.468;2023-02-28T03:44:46;5.50;49.40
10538;DHT22;5317;49.048;8.468;2023-02-28T03:47:19;5.50;49.40
10538;DHT22;5317;49.048;8.468;2023-02-28T03:49:49;5.50;49.60
10538;DHT22;5317;49.048;8.468;2023-02-28T03:52:20;5.50;49.50
10538;DHT22;5317;49.048;8.468;2023-02-28T03:54:51;5.50;49.50
10538;DHT22;5317;49.048;8.468;2023-02-28T03:57:25;5.50;49.40
10538;DHT22;5317;49.048;8.468;2023-02-28T03:59:57;5.60;49.60
10538;DHT22;5317;49.048;8.468;2023-02-28T04:02:26;5.50;49.40
10538;DHT22;5317;49.048;8.468;2023-02-28T04:04:54;5.60;49.40
10538;DHT22;5317;49.048;8.468;2023-02-28T04:07:22;5.60;49.40
10538;DHT22;5317;49.048;8.468;2023-02-28T04:09:49;5.60;49.40
10538;DHT22;5317;49.048;8.468;2023-02-28T04:12:16;5.60;49.50
10538;DHT22;5317;49.048;8.468;2023-02-28T04:14:42;5.60;49.40
10538;DHT22;5317;49.048;8.468;2023-02-28T04:17:09;5.60;49.30
10538;DHT22;5317;49.048;8.468;2023-02-28T04:19:36;5.60;49.20
10538;DHT22;5317;49.048;8.468;2023-02-28T04:22:03;5.60;49.30
10538;DHT22;5317;49.048;8.468;2023-02-28T04:24:31;5.60;49.30
10538;DHT22;5317;49.048;8.468;2023-02-28T04:26:58;5.60;49.30
10538;DHT22;5317;49.048;8.468;2023-02-28T04:29:27;5.60;49.30
10538;DHT22;5317;49.048;8.468;2023-02-28T04:31:54;5.60;49.20
10538;DHT22;5317;49.048;8.468;2023-02-28T04:34:25;5.60;49.10
10538;DHT22;5317;49.048;8.468;2023-02-28T04:36:53;5.60;49.30
10538;DHT22;5317;49.048;8.468;2023-02-28T04:39:21;5.70;49.10
10538;DHT22;5317;49.048;8.468;2023-02-28T04:41:49;5.70;49.10
10538;DHT22;5317;49.048;8.468;2023-02-28T04:44:17;5.70;49.10
10538;DHT22;5317;49.048;8.468;2023-02-28T04:46:44;5.70;49.10
10538;DHT22;5317;49.048;8.468;2023-02-28T04:49:11;5.70;49.20
10538;DHT22;5317;49.048;8.468;2023-02-28T04:51:39;5.70;49.70
10538;DHT22;5317;49.048;8.468;2023-02-28T04:54:06;5.70;49.10
10538;DHT22;5317;49.048;8.468;2023-02-28T04:56:33;5.80;49.10
10538;DHT22;5317;49.048;8.468;2023-02-28T04:59:01;5.70;48.90
10538;DHT22;5317;49.048;8.468;2023-02-28T05:01:30;5.70;49.00
10538;DHT22;5317;49.048;8.468;2023-02-28T05:03:59;5.70;49.00
10538;DHT22;5317;49.048;8.468;2023-02-28T05:06:28;5.70;48.60
10538;DHT22;5317;49.048;8.468;2023-02-28T05:08:55;5.80;48.70
10538;DHT22;5317;49.048;8.468;2023-02-28T05:11:24;5.80;48.70
10538;DHT22;5317;49.048;8.468;2023-02-28T05:13:52;5.70;48.50
10538;DHT22;5317;49.048;8.468;2023-02-28T05:16:22;5.80;48.70
10538;DHT22;5317;49.048;8.468;2023-02-28T05:18:48;5.80;48.50
10538;DHT22;5317;49.048;8.468;2023-02-28T05:21:25;5.70;48.40
10538;DHT22;5317;49.048;8.468;2023-02-28T05:23:52;5.80;48.50
10538;DHT22;5317;49.048;8.468;2023-02-28T05:26:19;5.80;48.50
10538;DHT22;5317;49.048;8.468;2023-02-28T05:28:46;5.70;48.40
10538;DHT22;5317;49.048;8.468;2023-02-28T05:31:13;5.70;48.60
10538;DHT22;5317;49.048;8.468;2023-02-28T05:33:42;5.70;48.60
10538;DHT22;5317;49.048;8.468;2023-02-28T05:36:09;5.70;48.60
10538;DHT22;5317;49.048;8.468;2023-02-28T05:38:35;5.70;48.80
10538;DHT22;5317;49.048;8.468;2023-02-28T05:41:05;5.70;48.80
10538;DHT22;5317;49.048;8.468;2023-02-28T05:43:32;5.70;48.80
10538;DHT22;5317;49.048;8.468;2023-02-28T05:46:01;5.70;48.90
10538;DHT22;5317;49.048;8.468;2023-02-28T05:48:28;5.70;49.00
10538;DHT22;5317;49.048;8.468;2023-02-28T05:50:58;5.60;49.00
10538;DHT22;5317;49.048;8.468;2023-02-28T05:53:25;5.60;49.00
10538;DHT22;5317;49.048;8.468;2023-02-28T05:55:52;5.70;49.10
10538;DHT22;5317;49.048;8.468;2023-02-28T05:58:19;5.60;49.00
10538;DHT22;5317;49.048;8.468;2023-02-28T06:00:46;5.60;49.20
10538;DHT22;5317;49.048;8.468;2023-02-28T06:03:13;5.60;49.20
10538;DHT22;5317;49.048;8.468;2023-02-28T06:05:40;5.70;49.30
10538;DHT22;5317;49.048;8.468;2023-02-28T06:08:08;5.70;49.30
10538;DHT22;5317;49.048;8.468;2023-02-28T06:10:35;5.70;49.20
10538;DHT22;5317;49.048;8.468;2023-02-28T06:13:02;5.70;49.20
10538;DHT22;5317;49.048;8.468;2023-02-28T06:15:29;5.70;49.20
10538;DHT22;5317;49.048;8.468;2023-02-28T06:17:57;5.70;49.20
10538;DHT22;5317;49.048;8.468;2023-02-28T06:20:24;5.70;49.20
10538;DHT22;5317;49.048;8.468;2023-02-28T06:22:54;5.70;49.20
10538;DHT22;5317;49.048;8.468;2023-02-28T06:25:23;5.70;49.10
10538;DHT22;5317;49.048;8.468;2023-02-28T06:27:49;5.70;49.10
10538;DHT22;5317;49.048;8.468;2023-02-28T06:30:17;5.70;49.10
10538;DHT22;5317;49.048;8.468;2023-02-28T06:32:44;5.70;49.10
10538;DHT22;5317;49.048;8.468;2023-02-28T06:35:10;5.80;49.20
10538;DHT22;5317;49.048;8.468;2023-02-28T06:37:39;5.80;49.10
10538;DHT22;5317;49.048;8.468;2023-02-28T06:40:07;5.90;49.10
10538;DHT22;5317;49.048;8.468;2023-02-28T06:42:35;5.90;49.30
10538;DHT22;5317;49.048;8.468;2023-02-28T06:45:02;5.90;49.10
10538;DHT22;5317;49.048;8.468;2023-02-28T06:47:34;5.90;49.20
10538;DHT22;5317;49.048;8.468;2023-02-28T06:50:01;5.90;49.00
10538;DHT22;5317;49.048;8.468;2023-02-28T06:52:28;5.90;49.00
10538;DHT22;5317;49.048;8.468;2023-02-28T06:54:55;6.00;49.10
10538;DHT22;5317;49.048;8.468;2023-02-28T06:57:28;6.00;48.90
10538;DHT22;5317;49.048;8.468;2023-02-28T06:59:58;6.00;49.60
10538;DHT22;5317;49.048;8.468;2023-02-28T07:02:25;6.00;48.90
10538;DHT22;5317;49.048;8.468;2023-02-28T07:04:52;6.10;48.70
10538;DHT22;5317;49.048;8.468;2023-02-28T07:07:19;6.10;48.80
10538;DHT22;5317;49.048;8.468;2023-02-28T07:09:46;6.10;48.80
10538;DHT22;5317;49.048;8.468;2023-02-28T07:12:13;6.30;48.80
10538;DHT22;5317;49.048;8.468;2023-02-28T07:14:40;6.20;48.70
10538;DHT22;5317;49.048;8.468;2023-02-28T07:17:09;6.30;48.80
10538;DHT22;5317;49.048;8.468;2023-02-28T07:19:37;6.20;48.80
10538;DHT22;5317;49.048;8.468;2023-02-28T07:22:05;6.10;48.60
10538;DHT22;5317;49.048;8.468;2023-02-28T07:24:33;6.20;48.80
10538;DHT22;5317;49.048;8.468;2023-02-28T07:27:00;6.10;48.60
10538;DHT22;5317;49.048;8.468;2023-02-28T07:29:27;6.10;48.80
10538;DHT22;5317;49.048;8.468;2023-02-28T07:31:54;6.20;48.80
10538;DHT22;5317;49.048;8.468;2023-02-28T07:34:22;6.10;48.80
10538;DHT22;5317;49.048;8.468;2023-02-28T07:36:52;6.10;48.80
10538;DHT22;5317;49.048;8.468;2023-02-28T07:39:19;6.00;48.80
10538;DHT22;5317;49.048;8.468;2023-02-28T07:41:46;6.10;48.90
10538;DHT22;5317;49.048;8.468;2023-02-28T07:44:13;6.10;48.80
10538;DHT22;5317;49.048;8.468;2023-02-28T07:46:40;6.10;48.60
10538;DHT22;5317;49.048;8.468;2023-02-28T07:49:07;6.20;48.60
10538;DHT22;5317;49.048;8.468;2023-02-28T07:51:35;6.20;49.20
10538;DHT22;5317;49.048;8.468;2023-02-28T07:54:02;6.30;48.70
10538;DHT22;5317;49.048;8.468;2023-02-28T07:56:29;6.30;48.50
10538;DHT22;5317;49.048;8.468;2023-02-28T07:58:56;6.30;48.50
10538;DHT22;5317;49.048;8.468;2023-02-28T08:01:24;6.30;48.60
10538;DHT22;5317;49.048;8.468;2023-02-28T08:03:51;6.30;48.40
10538;DHT22;5317;49.048;8.468;2023-02-28T08:06:22;6.30;48.50
10538;DHT22;5317;49.048;8.468;2023-02-28T08:08:52;6.40;48.20
10538;DHT22;5317;49.048;8.468;2023-02-28T08:11:19;6.30;48.10
10538;DHT22;5317;49.048;8.468;2023-02-28T08:13:47;6.30;48.10
10538;DHT22;5317;49.048;8.468;2023-02-28T08:16:14;6.30;48.30
10538;DHT22;5317;49.048;8.468;2023-02-28T08:18:46;6.40;48.30
10538;DHT22;5317;49.048;8.468;2023-02-28T08:21:13;6.40;48.10
10538;DHT22;5317;49.048;8.468;2023-02-28T08:23:40;6.40;48.20
10538;DHT22;5317;49.048;8.468;2023-02-28T08:26:08;6.40;48.10
10538;DHT22;5317;49.048;8.468;2023-02-28T08:28:35;6.50;48.20
10538;DHT22;5317;49.048;8.468;2023-02-28T08:31:07;6.50;48.10
10538;DHT22;5317;49.048;8.468;2023-02-28T08:33:34;6.70;48.20
10538;DHT22;5317;49.048;8.468;2023-02-28T08:36:01;6.70;48.00
10538;DHT22;5317;49.048;8.468;2023-02-28T08:38:27;6.70;47.80
10538;DHT22;5317;49.048;8.468;2023-02-28T08:40:58;6.80;47.90
10538;DHT22;5317;49.048;8.468;2023-02-28T08:43:27;6.80;47.90
10538;DHT22;5317;49.048;8.468;2023-02-28T08:45:54;6.80;47.60
10538;DHT22;5317;49.048;8.468;2023-02-28T08:48:22;6.90;48.30
10538;DHT22;5317;49.048;8.468;2023-02-28T08:50:55;6.90;47.60
10538;DHT22;5317;49.048;8.468;2023-02-28T08:53:22;7.00;47.40
10538;DHT22;5317;49.048;8.468;2023-02-28T08:55:56;7.00;47.20
10538;DHT22;5317;49.048;8.468;2023-02-28T08:58:23;7.00;47.20
10538;DHT22;5317;49.048;8.468;2023-02-28T09:00:51;7.10;47.00
10538;DHT22;5317;49.048;8.468;2023-02-28T09:03:19;7.20;46.90
10538;DHT22;5317;49.048;8.468;2023-02-28T09:05:53;7.20;46.80
10538;DHT22;5317;49.048;8.468;2023-02-28T09:08:20;7.20;46.80
10538;DHT22;5317;49.048;8.468;2023-02-28T09:10:47;7.40;46.80
10538;DHT22;5317;49.048;8.468;2023-02-28T09:13:14;7.40;46.50
10538;DHT22;5317;49.048;8.468;2023-02-28T09:15:41;7.60;46.90
10538;DHT22;5317;49.048;8.468;2023-02-28T09:18:09;7.70;46.70
10538;DHT22;5317;49.048;8.468;2023-02-28T09:20:37;7.80;46.40
10538;DHT22;5317;49.048;8.468;2023-02-28T09:23:05;7.80;45.80
10538;DHT22;5317;49.048;8.468;2023-02-28T09:25:32;7.90;45.90
10538;DHT22;5317;49.048;8.468;2023-02-28T09:27:59;7.90;45.80
10538;DHT22;5317;49.048;8.468;2023-02-28T09:30:26;8.00;45.50
10538;DHT22;5317;49.048;8.468;2023-02-28T09:32:53;8.00;45.40
10538;DHT22;5317;49.048;8.468;2023-02-28T09:35:23;8.00;45.40
10538;DHT22;5317;49.048;8.468;2023-02-28T09:37:52;8.20;45.90
10538;DHT22;5317;49.048;8.468;2023-02-28T09:40:20;8.30;45.50
10538;DHT22;5317;49.048;8.468;2023-02-28T09:42:51;8.50;45.20
10538;DHT22;5317;49.048;8.468;2023-02-28T09:45:23;8.60;45.00
10538;DHT22;5317;49.048;8.468;2023-02-28T09:47:52;8.80;44.40
10538;DHT22;5317;49.048;8.468;2023-02-28T09:50:29;8.90;44.20
10538;DHT22;5317;49.048;8.468;2023-02-28T09:52:58;9.10;44.40
10538;DHT22;5317;49.048;8.468;2023-02-28T09:55:29;9.20;44.40
10538;DHT22;5317;49.048;8.468;2023-02-28T09:57:57;9.20;43.70
10538;DHT22;5317;49.048;8.468;2023-02-28T10:00:31;9.30;43.50
10538;DHT22;5317;49.048;8.468;2023-02-28T10:03:06;9.30;43.50
10538;DHT22;5317;49.048;8.468;2023-02-28T10:05:43;9.40;42.80
10538;DHT22;5317;49.048;8.468;2023-02-28T10:08:15;9.50;42.80
10538;DHT22;5317;49.048;8.468;2023-02-28T10:10:45;9.70;43.10
10538;DHT22;5317;49.048;8.468;2023-02-28T10:13:17;9.70;42.50
10538;DHT22;5317;49.048;8.468;2023-02-28T10:15:48;9.80;42.50
10538;DHT22;5317;49.048;8.468;2023-02-28T10:18:23;9.90;42.30
10538;DHT22;5317;49.048;8.468;2023-02-28T10:20:53;9.90;41.90
10538;DHT22;5317;49.048;8.468;2023-02-28T10:23:23;9.90;41.80
10538;DHT22;5317;49.048;8.468;2023-02-28T10:25:55;9.90;41.80
10538;DHT22;5317;49.048;8.468;2023-02-28T10:28:25;9.90;42.20
10538;DHT22;5317;49.048;8.468;2023-02-28T10:30:54;9.90;42.00
10538;DHT22;5317;49.048;8.468;2023-02-28T10:33:23;9.80;41.30
10538;DHT22;5317;49.048;8.468;2023-02-28T10:35:52;9.80;41.40
10538;DHT22;5317;49.048;8.468;2023-02-28T10:38:21;9.90;41.70
10538;DHT22;5317;49.048;8.468;2023-02-28T10:40:49;10.00;41.00
10538;DHT22;5317;49.048;8.468;2023-02-28T10:43:21;10.20;41.20
10538;DHT22;5317;49.048;8.468;2023-02-28T10:45:55;10.20;40.70
10538;DHT22;5317;49.048;8.468;2023-02-28T10:48:29;10.20;40.10
10538;DHT22;5317;49.048;8.468;2023-02-28T10:50:58;10.30;40.30
10538;DHT22;5317;49.048;8.468;2023-02-28T10:53:32;10.30;40.80
10538;DHT22;5317;49.048;8.468;2023-02-28T10:56:01;10.30;40.30
10538;DHT22;5317;49.048;8.468;2023-02-28T10:58:30;10.30;39.80
10538;DHT22;5317;49.048;8.468;2023-02-28T11:00:58;10.20;40.40
10538;DHT22;5317;49.048;8.468;2023-02-28T11:03:31;10.20;39.80
10538;DHT22;5317;49.048;8.468;2023-02-28T11:06:05;10.20;39.80
10538;DHT22;5317;49.048;8.468;2023-02-28T11:08:33;10.10;39.70
10538;DHT22;5317;49.048;8.468;2023-02-28T11:11:04;10.10;40.10
10538;DHT22;5317;49.048;8.468;2023-02-28T11:13:34;10.00;39.80
10538;DHT22;5317;49.048;8.468;2023-02-28T11:16:03;9.90;40.60
10538;DHT22;5317;49.048;8.468;2023-02-28T11:18:36;9.90;40.70
10538;DHT22;5317;49.048;8.468;2023-02-28T11:21:06;9.90;40.80
10538;DHT22;5317;49.048;8.468;2023-02-28T11:23:36;9.90;40.90
10538;DHT22;5317;49.048;8.468;2023-02-28T11:26:04;9.90;41.10
10538;DHT22;5317;49.048;8.468;2023-02-28T11:28:36;9.80;40.90
10538;DHT22;5317;49.048;8.468;2023-02-28T11:31:14;9.80;41.20
10538;DHT22;5317;49.048;8.468;2023-02-28T11:33:43;9.80;41.10
10538;DHT22;5317;49.048;8.468;2023-02-28T11:36:14;9.80;41.00
10538;DHT22;5317;49.048;8.468;2023-02-28T11:38:42;9.80;40.90
10538;DHT22;5317;49.048;8.468;2023-02-28T11:44:16;9.70;41.20
10538;DHT22;5317;49.048;8.468;2023-02-28T11:46:50;9.80;41.50
10538;DHT22;5317;49.048;8.468;2023-02-28T11:49:33;9.90;41.30
10538;DHT22;5317;49.048;8.468;2023-02-28T11:52:10;9.90;41.20
10538;DHT22;5317;49.048;8.468;2023-02-28T11:55:07;10.00;40.20
10538;DHT22;5317;49.048;8.468;2023-02-28T11:57:58;10.20;40.00
10538;DHT22;5317;49.048;8.468;2023-02-28T12:00:40;10.30;40.10
10538;DHT22;5317;49.048;8.468;2023-02-28T12:03:21;10.30;39.80
10538;DHT22;5317;49.048;8.468;2023-02-28T12:05:56;10.40;39.70
10538;DHT22;5317;49.048;8.468;2023-02-28T12:08:42;10.50;40.00
10538;DHT22;5317;49.048;8.468;2023-02-28T12:11:19;10.60;39.70
10538;DHT22;5317;49.048;8.468;2023-02-28T12:13:58;10.60;39.50
10538;DHT22;5317;49.048;8.468;2023-02-28T12:16:40;10.70;39.30
10538;DHT22;5317;49.048;8.468;2023-02-28T12:19:17;10.80;39.30
10538;DHT22;5317;49.048;8.468;2023-02-28T12:24:55;10.90;39.50
10538;DHT22;5317;49.048;8.468;2023-02-28T12:27:28;11.00;38.80
10538;DHT22;5317;49.048;8.468;2023-02-28T12:30:00;11.10;38.80
10538;DHT22;5317;49.048;8.468;2023-02-28T12:32:32;11.20;38.70
10538;DHT22;5317;49.048;8.468;2023-02-28T12:35:04;11.20;38.40
10538;DHT22;5317;49.048;8.468;2023-02-28T12:37:36;11.30;38.00
10538;DHT22;5317;49.048;8.468;2023-02-28T12:40:13;11.40;38.00
10538;DHT22;5317;49.048;8.468;2023-02-28T12:42:44;11.50;38.40
10538;DHT22;5317;49.048;8.468;2023-02-28T12:45:17;11.40;37.30
10538;DHT22;5317;49.048;8.468;2023-02-28T12:47:45;11.50;37.10
10538;DHT22;5317;49.048;8.468;2023-02-28T12:50:13;11.50;37.30
10538;DHT22;5317;49.048;8.468;2023-02-28T12:52:48;11.60;36.90
10538;DHT22;5317;49.048;8.468;2023-02-28T12:55:26;11.60;37.00
10538;DHT22;5317;49.048;8.468;2023-02-28T12:58:01;11.60;37.20
10538;DHT22;5317;49.048;8.468;2023-02-28T13:00:33;11.70;37.00
10538;DHT22;5317;49.048;8.468;2023-02-28T13:03:29;11.80;37.10
10538;DHT22;5317;49.048;8.468;2023-02-28T13:09:02;11.90;37.10
10538;DHT22;5317;49.048;8.468;2023-02-28T13:11:33;12.20;37.40
10538;DHT22;5317;49.048;8.468;2023-02-28T13:14:06;12.30;37.00
10538;DHT22;5317;49.048;8.468;2023-02-28T13:16:59;12.30;36.90
10538;DHT22;5317;49.048;8.468;2023-02-28T13:19:30;12.40;36.50
10538;DHT22;5317;49.048;8.468;2023-02-28T13:21:58;12.40;36.50
10538;DHT22;5317;49.048;8.468;2023-02-28T13:24:44;12.40;36.00
10538;DHT22;5317;49.048;8.468;2023-02-28T13:27:31;12.50;36.00
10538;DHT22;5317;49.048;8.468;2023-02-28T13:29:59;12.60;36.10
10538;DHT22;5317;49.048;8.468;2023-02-28T13:32:33;12.80;36.30
10538;DHT22;5317;49.048;8.468;2023-02-28T13:35:43;13.20;35.90
10538;DHT22;5317;49.048;8.468;2023-02-28T13:38:38;13.20;35.00
10538;DHT22;5317;49.048;8.468;2023-02-28T13:44:23;13.00;35.40
10538;DHT22;5317;49.048;8.468;2023-02-28T13:47:23;13.00;35.60
10538;DHT22;5317;49.048;8.468;2023-02-28T13:49:52;14.00;35.30
10538;DHT22;5317;49.048;8.468;2023-02-28T13:52:22;14.20;34.30
10538;DHT22;5317;49.048;8.468;2023-02-28T13:55:18;14.60;33.70
10538;DHT22;5317;49.048;8.468;2023-02-28T13:58:00;14.70;33.80
10538;DHT22;5317;49.048;8.468;2023-02-28T14:00:39;14.50;33.30
10538;DHT22;5317;49.048;8.468;2023-02-28T14:03:26;14.30;33.60
10538;DHT22;5317;49.048;8.468;2023-02-28T14:06:16;14.90;33.20
10538;DHT22;5317;49.048;8.468;2023-02-28T14:08:50;15.90;33.00
10538;DHT22;5317;49.048;8.468;2023-02-28T14:11:28;15.90;32.50
10538;DHT22;5317;49.048;8.468;2023-02-28T14:13:55;16.10;32.20
10538;DHT22;5317;49.048;8.468;2023-02-28T14:16:38;18.10;30.90
10538;DHT22;5317;49.048;8.468;2023-02-28T14:19:12;20.30;29.10
10538;DHT22;5317;49.048;8.468;2023-02-28T14:21:46;22.90;28.60
10538;DHT22;5317;49.048;8.468;2023-02-28T14:24:54;25.10;26.90
10538;DHT22;5317;49.048;8.468;2023-02-28T14:27:33;26.90;24.20
10538;DHT22;5317;49.048;8.468;2023-02-28T14:33:17;29.30;23.00
10538;DHT22;5317;49.048;8.468;2023-02-28T14:35:57;27.40;23.30
10538;DHT22;5317;49.048;8.468;2023-02-28T14:38:28;26.80;23.70
10538;DHT22;5317;49.048;8.468;2023-02-28T14:40:58;25.40;24.40
10538;DHT22;5317;49.048;8.468;2023-02-28T14:43:28;24.10;24.80
10538;DHT22;5317;49.048;8.468;2023-02-28T14:45:58;22.80;25.00
10538;DHT22;5317;49.048;8.468;2023-02-28T14:48:27;21.30;25.40
10538;DHT22;5317;49.048;8.468;2023-02-28T14:50:57;20.00;26.10
10538;DHT22;5317;49.048;8.468;2023-02-28T14:53:27;20.10;26.90
10538;DHT22;5317;49.048;8.468;2023-02-28T14:55:55;20.10;26.70
10538;DHT22;5317;49.048;8.468;2023-02-28T14:58:24;21.40;26.40
10538;DHT22;5317;49.048;8.468;2023-02-28T15:00:53;21.70;25.80
10538;DHT22;5317;49.048;8.468;2023-02-28T15:03:23;21.80;25.60
10538;DHT22;5317;49.048;8.468;2023-02-28T15:05:56;23.30;25.60
10538;DHT22;5317;49.048;8.468;2023-02-28T15:08:25;24.90;24.70
10538;DHT22;5317;49.048;8.468;2023-02-28T15:10:56;26.00;24.10
10538;DHT22;5317;49.048;8.468;2023-02-28T15:13:34;26.90;23.40
10538;DHT22;5317;49.048;8.468;2023-02-28T15:16:04;27.10;22.50
10538;DHT22;5317;49.048;8.468;2023-02-28T15:18:38;27.10;22.80
10538;DHT22;5317;49.048;8.468;2023-02-28T15:21:12;26.60;22.60
10538;DHT22;5317;49.048;8.468;2023-02-28T15:23:42;25.40;22.80
10538;DHT22;5317;49.048;8.468;2023-02-28T15:26:12;23.90;23.20
10538;DHT22;5317;49.048;8.468;2023-02-28T15:28:40;22.60;23.80
10538;DHT22;5317;49.048;8.468;2023-02-28T15:31:19;21.50;24.60
10538;DHT22;5317;49.048;8.468;2023-02-28T15:33:53;20.50;25.20
10538;DHT22;5317;49.048;8.468;2023-02-28T15:36:28;19.70;25.70
10538;DHT22;5317;49.048;8.468;2023-02-28T15:38:59;19.10;26.20
10538;DHT22;5317;49.048;8.468;2023-02-28T15:41:28;18.60;26.30
10538;DHT22;5317;49.048;8.468;2023-02-28T15:44:24;18.00;26.50
10538;DHT22;5317;49.048;8.468;2023-02-28T15:46:58;17.60;27.10
10538;DHT22;5317;49.048;8.468;2023-02-28T15:49:27;17.40;27.30
10538;DHT22;5317;49.048;8.468;2023-02-28T15:51:58;17.20;27.60
10538;DHT22;5317;49.048;8.468;2023-02-28T15:54:29;16.90;27.80
10538;DHT22;5317;49.048;8.468;2023-02-28T15:57:05;16.60;28.30
10538;DHT22;5317;49.048;8.468;2023-02-28T15:59:35;16.20;28.50
10538;DHT22;5317;49.048;8.468;2023-02-28T16:02:15;15.90;28.70
10538;DHT22;5317;49.048;8.468;2023-02-28T16:04:57;15.60;29.10
10538;DHT22;5317;49.048;8.468;2023-02-28T16:07:26;15.30;29.30
10538;DHT22;5317;49.048;8.468;2023-02-28T16:09:54;15.10;29.80
10538;DHT22;5317;49.048;8.468;2023-02-28T16:12:25;14.80;29.90
10538;DHT22;5317;49.048;8.468;2023-02-28T16:14:54;14.50;30.10
10538;DHT22;5317;49.048;8.468;2023-02-28T16:17:23;14.20;30.60
10538;DHT22;5317;49.048;8.468;2023-02-28T16:19:50;14.00;31.20
10538;DHT22;5317;49.048;8.468;2023-02-28T16:22:18;13.70;31.30
10538;DHT22;5317;49.048;8.468;2023-02-28T16:24:46;13.50;32.10
10538;DHT22;5317;49.048;8.468;2023-02-28T16:27:19;13.40;31.90
10538;DHT22;5317;49.048;8.468;2023-02-28T16:29:48;13.30;32.20
10538;DHT22;5317;49.048;8.468;2023-02-28T16:32:15;13.10;32.30
10538;DHT22;5317;49.048;8.468;2023-02-28T16:34:43;13.00;32.50
10538;DHT22;5317;49.048;8.468;2023-02-28T16:37:12;12.90;32.80
10538;DHT22;5317;49.048;8.468;2023-02-28T16:39:40;12.80;33.20
10538;DHT22;5317;49.048;8.468;2023-02-28T16:42:14;12.60;33.00
10538;DHT22;5317;49.048;8.468;2023-02-28T16:44:42;12.50;33.50